Time;durP1;ratioP1;P1;durP2;ratioP2;P2;SDS_P1;SDS_P2;PMS_P1;PMS_P2;Temp;Humidity;BMP_temperature;BMP_pressure;BME280_temperature;BME280_humidity;BME280_pressure;Samples;Min_cycle;Max_cycle;Signal;HPM_P1;HPM_P2
2022/07/15 00:02:09;;;;;;;9.70;4.60;;;;;;;14.29;100.00;102121.84;5031334;28;20370;-80
2022/07/15 00:04:36;;;;;;;11.80;5.22;;;;;;;14.35;100.00;102125.72;5025614;28;20026;-77
2022/07/15 00:07:02;;;;;;;8.68;5.10;;;;;;;14.34;100.00;102117.78;5050921;28;20040;-76
2022/07/15 00:12:13;;;;;;;15.05;4.55;;;;;;;14.36;100.00;102121.16;5047219;28;20040;-79
2022/07/15 00:14:39;;;;;;;12.75;4.88;;;;;;;14.33;100.00;102111.50;5016719;28;20048;-78
2022/07/15 00:17:06;;;;;;;9.23;4.10;;;;;;;14.24;100.00;102112.53;5036560;28;20035;-77
2022/07/15 00:19:33;;;;;;;9.13;4.97;;;;;;;14.21;100.00;102108.31;5034726;28;20102;-78
2022/07/15 00:21:59;;;;;;;5.63;3.78;;;;;;;14.22;100.00;102109.13;5021017;28;20127;-77
2022/07/15 00:24:25;;;;;;;9.55;4.63;;;;;;;14.21;100.00;102111.00;5046396;28;20037;-78
2022/07/15 00:26:50;;;;;;;7.90;4.43;;;;;;;14.25;100.00;102108.81;5049205;28;20112;-78
2022/07/15 00:29:16;;;;;;;11.93;5.00;;;;;;;14.22;100.00;102109.13;5034839;28;20037;-77
2022/07/15 00:31:42;;;;;;;5.35;3.60;;;;;;;14.22;100.00;102106.44;5067952;28;20040;-77
2022/07/15 00:34:07;;;;;;;8.73;4.45;;;;;;;14.21;100.00;102105.59;5030654;28;20047;-78
2022/07/15 00:36:33;;;;;;;8.18;4.57;;;;;;;14.07;100.00;102090.84;5016239;28;20040;-77
2022/07/15 00:38:58;;;;;;;7.47;4.00;;;;;;;14.10;100.00;102113.16;5069151;28;20037;-79
2022/07/15 00:41:24;;;;;;;5.07;3.65;;;;;;;13.97;100.00;102106.41;5060860;28;20483;-79
2022/07/15 00:43:50;;;;;;;8.30;4.18;;;;;;;14.02;100.00;102103.19;5065533;28;20063;-79
2022/07/15 00:46:18;;;;;;;6.63;4.93;;;;;;;14.02;100.00;102114.00;5010567;28;20063;-79
2022/07/15 00:48:44;;;;;;;7.38;4.03;;;;;;;14.00;100.00;102111.47;5037064;28;20683;-80
2022/07/15 00:51:09;;;;;;;9.35;4.30;;;;;;;14.03;100.00;102111.13;5014896;28;20063;-78
2022/07/15 00:53:36;;;;;;;10.57;4.90;;;;;;;13.98;100.00;102099.97;5036158;28;20036;-78
2022/07/15 00:56:02;;;;;;;13.15;4.70;;;;;;;13.90;100.00;102085.59;5044098;28;20037;-77
2022/07/15 00:58:29;;;;;;;8.02;4.10;;;;;;;14.05;100.00;102089.31;5031996;28;20082;-80
2022/07/15 01:00:57;;;;;;;10.63;3.72;;;;;;;14.12;100.00;102086.81;5027861;28;20060;-78
2022/07/15 01:03:23;;;;;;;9.25;3.83;;;;;;;14.12;100.00;102087.66;5032725;28;20070;-78
2022/07/15 01:05:48;;;;;;;9.93;4.55;;;;;;;14.10;100.00;102083.41;5016167;28;20036;-80
2022/07/15 01:08:17;;;;;;;8.85;4.38;;;;;;;14.06;100.00;102088.31;5033875;28;20056;-78
2022/07/15 01:10:43;;;;;;;8.98;4.40;;;;;;;14.06;100.00;102081.06;5044987;28;20028;-78
2022/07/15 01:13:09;;;;;;;6.60;3.78;;;;;;;14.05;100.00;102079.38;5024898;28;20039;-79
2022/07/15 01:15:35;;;;;;;9.80;3.65;;;;;;;14.06;100.00;102072.94;5015058;28;20051;-79
2022/07/15 01:18:01;;;;;;;10.07;4.57;;;;;;;14.09;100.00;102077.16;5051517;28;20109;-79
2022/07/15 01:20:28;;;;;;;7.85;3.50;;;;;;;14.04;100.00;102056.03;5032699;28;20478;-78
2022/07/15 01:22:54;;;;;;;9.57;4.00;;;;;;;14.14;100.00;102068.56;5035874;28;20430;-79
2022/07/15 01:25:19;;;;;;;10.48;4.95;;;;;;;14.16;100.00;102061.97;5011004;28;20547;-78
2022/07/15 01:27:45;;;;;;;5.70;3.38;;;;;;;14.16;100.00;102056.56;5042763;28;20081;-80
2022/07/15 01:30:11;;;;;;;8.32;3.38;;;;;;;13.92;100.00;102006.00;5016506;28;20194;-77
2022/07/15 01:32:37;;;;;;;6.47;3.53;;;;;;;14.18;100.00;102040.13;5031443;28;20032;-79
2022/07/15 01:35:03;;;;;;;6.97;3.92;;;;;;;14.19;100.00;102044.56;5031864;28;20493;-79
2022/07/15 01:37:29;;;;;;;6.90;3.38;;;;;;;14.10;100.00;102048.25;5017572;28;20036;-78
2022/07/15 01:39:54;;;;;;;8.45;3.80;;;;;;;13.91;100.00;102047.56;5046894;28;20120;-78
2022/07/15 01:42:20;;;;;;;10.13;4.22;;;;;;;13.87;100.00;102048.91;5066947;28;20032;-78
2022/07/15 01:44:45;;;;;;;11.20;4.35;;;;;;;13.88;100.00;102037.06;5046801;28;20040;-78
2022/07/15 01:47:11;;;;;;;7.95;4.40;;;;;;;13.80;100.00;102024.38;5013821;28;20170;-77
2022/07/15 01:49:37;;;;;;;9.90;4.05;;;;;;;13.96;100.00;102045.19;5062606;28;20059;-78
2022/07/15 01:52:04;;;;;;;9.70;4.05;;;;;;;13.99;100.00;102025.09;5040007;28;20498;-78
2022/07/15 01:54:31;;;;;;;7.68;3.83;;;;;;;14.03;100.00;102015.63;5048564;28;20068;-78
2022/07/15 01:56:57;;;;;;;8.15;4.35;;;;;;;14.14;100.00;102011.75;5036237;28;20033;-77
2022/07/15 01:59:24;;;;;;;7.22;4.03;;;;;;;14.20;100.00;102020.03;5045873;28;20129;-77
2022/07/15 02:01:51;;;;;;;10.95;4.05;;;;;;;14.16;100.00;102004.31;5026656;28;20486;-80
2022/07/15 02:04:16;;;;;;;10.20;4.53;;;;;;;14.19;100.00;102018.34;5050868;28;20045;-80
2022/07/15 02:06:42;;;;;;;7.55;3.67;;;;;;;14.14;100.00;102019.88;5062387;28;20025;-79
2022/07/15 02:09:08;;;;;;;5.90;3.08;;;;;;;14.13;100.00;102016.31;5042915;28;21135;-79
2022/07/15 02:11:35;;;;;;;5.55;3.70;;;;;;;14.17;100.00;102014.13;5039205;28;20177;-79
2022/07/15 02:14:01;;;;;;;9.38;3.70;;;;;;;14.25;100.00;102016.81;5013886;28;20123;-79
2022/07/15 02:16:29;;;;;;;4.78;3.42;;;;;;;14.28;100.00;102011.06;5014565;28;20398;-80
2022/07/15 02:18:55;;;;;;;5.07;3.45;;;;;;;14.22;100.00;102000.94;5046784;28;20036;-79
2022/07/15 02:21:21;;;;;;;6.00;3.35;;;;;;;14.29;100.00;102018.19;5030779;28;20044;-78
2022/07/15 02:23:46;;;;;;;5.25;3.45;;;;;;;14.31;100.00;102016.13;5012261;28;20035;-78
2022/07/15 02:26:13;;;;;;;7.78;4.32;;;;;;;14.40;100.00;102015.13;5041964;28;20395;-81
2022/07/15 02:28:38;;;;;;;4.55;2.95;;;;;;;14.36;100.00;102000.25;5043327;28;20128;-80
2022/07/15 02:31:05;;;;;;;7.63;4.10;;;;;;;14.49;100.00;102016.78;5047386;28;20043;-78
2022/07/15 02:33:31;;;;;;;7.00;3.55;;;;;;;14.50;100.00;102014.94;5045369;28;20032;-79
2022/07/15 02:35:57;;;;;;;8.13;3.28;;;;;;;14.48;100.00;102012.41;5044980;28;20032;-80
2022/07/15 02:38:23;;;;;;;5.53;3.30;;;;;;;14.41;100.00;102003.28;5029792;28;20058;-79
2022/07/15 02:40:48;;;;;;;6.85;3.17;;;;;;;14.33;100.00;102019.53;5042950;28;20044;-81
2022/07/15 02:43:14;;;;;;;6.90;3.22;;;;;;;14.18;100.00;102013.94;5031621;28;20040;-79
2022/07/15 02:45:40;;;;;;;6.53;3.30;;;;;;;14.14;100.00;102014.47;5043147;28;20119;-80
2022/07/15 02:48:07;;;;;;;7.57;3.38;;;;;;;14.10;100.00;102016.63;5032567;28;20040;-79
2022/07/15 02:50:33;;;;;;;4.00;2.40;;;;;;;14.07;100.00;102015.13;5045171;28;20159;-81
2022/07/15 02:53:00;;;;;;;8.02;3.10;;;;;;;14.03;100.00;102021.06;5024552;28;20029;-79
2022/07/15 02:55:25;;;;;;;5.32;3.28;;;;;;;13.97;100.00;102019.88;5037208;28;20037;-79
2022/07/15 02:57:51;;;;;;;19.08;5.55;;;;;;;13.91;100.00;102011.56;5039910;28;20045;-79
2022/07/15 03:00:17;;;;;;;11.15;4.93;;;;;;;13.88;100.00;102011.91;5028690;28;20115;-80
2022/07/15 03:02:43;;;;;;;10.30;4.47;;;;;;;13.88;100.00;102020.00;5024783;28;20032;-79
2022/07/15 03:05:09;;;;;;;6.60;3.95;;;;;;;13.80;100.00;102004.63;5050625;28;20122;-80
2022/07/15 03:07:35;;;;;;;7.30;3.78;;;;;;;13.84;100.00;102009.53;5033380;28;20178;-79
2022/07/15 03:10:02;;;;;;;6.95;3.90;;;;;;;13.81;100.00;102009.88;5052410;28;20028;-80
2022/07/15 03:12:29;;;;;;;7.97;3.92;;;;;;;13.80;100.00;102007.31;5053976;28;20028;-80
2022/07/15 03:14:54;;;;;;;6.90;4.22;;;;;;;13.82;100.00;102010.72;5030802;28;20186;-79
2022/07/15 03:17:20;;;;;;;9.05;3.95;;;;;;;13.82;100.00;102011.56;5053802;28;20123;-79
2022/07/15 03:19:45;;;;;;;7.15;3.58;;;;;;;13.81;100.00;102004.47;5067098;28;20027;-79
2022/07/15 03:22:11;;;;;;;9.68;3.65;;;;;;;13.81;100.00;102000.88;5019783;28;20048;-79
2022/07/15 03:24:37;;;;;;;13.43;4.18;;;;;;;13.82;100.00;102002.59;5071017;28;20036;-79
2022/07/15 03:27:02;;;;;;;6.68;4.20;;;;;;;13.80;100.00;101991.09;5053042;28;20024;-78
2022/07/15 03:29:29;;;;;;;10.15;3.92;;;;;;;13.84;100.00;102000.59;5022866;28;20037;-78
2022/07/15 03:31:56;;;;;;;8.35;4.03;;;;;;;13.86;100.00;102003.94;5033639;28;20474;-80
2022/07/15 03:34:25;;;;;;;8.10;4.35;;;;;;;13.85;100.00;101994.16;5050642;28;20033;-80
2022/07/15 03:36:51;;;;;;;6.10;3.90;;;;;;;13.87;100.00;102000.25;5057812;28;20120;-79
2022/07/15 03:39:16;;;;;;;7.63;3.00;;;;;;;13.68;100.00;101973.50;5066386;28;20076;-79
2022/07/15 03:41:42;;;;;;;10.18;3.20;;;;;;;13.77;100.00;101975.22;5064834;28;20036;-77
2022/07/15 03:44:08;;;;;;;6.60;3.22;;;;;;;13.85;100.00;101999.56;5063067;28;20024;-78
2022/07/15 03:46:33;;;;;;;4.85;3.03;;;;;;;13.81;100.00;101999.06;5063290;28;20036;-78
2022/07/15 03:49:00;;;;;;;5.43;3.25;;;;;;;13.80;100.00;101991.09;5053698;28;20489;-79
2022/07/15 03:51:30;;;;;;;6.88;2.97;;;;;;;13.82;100.00;102002.59;5057609;28;20490;-79
2022/07/15 03:54:00;;;;;;;7.70;2.75;;;;;;;13.77;100.00;101980.63;5049646;28;20104;-78
2022/07/15 03:56:26;;;;;;;7.85;3.75;;;;;;;13.83;100.00;101993.47;5052662;28;20092;-79
2022/07/15 03:58:52;;;;;;;7.65;3.33;;;;;;;13.83;100.00;101994.31;5049160;28;20039;-78
2022/07/15 04:01:18;;;;;;;8.75;3.67;;;;;;;13.82;100.00;101989.94;5025330;28;20036;-78
2022/07/15 04:03:43;;;;;;;8.60;3.13;;;;;;;13.82;100.00;101981.81;5019522;28;20040;-78
2022/07/15 04:06:09;;;;;;;7.35;3.72;;;;;;;13.81;100.00;101984.66;5050085;28;20386;-78
2022/07/15 04:08:34;;;;;;;6.10;3.13;;;;;;;13.84;100.00;101989.78;5052534;28;20032;-78
2022/07/15 04:11:00;;;;;;;9.45;3.95;;;;;;;13.67;100.00;101958.31;5047071;28;20039;-80
2022/07/15 04:13:26;;;;;;;7.20;3.40;;;;;;;13.85;100.00;101992.28;5051467;28;20115;-79
2022/07/15 04:15:52;;;;;;;9.13;3.60;;;;;;;13.84;100.00;101987.06;5048398;28;20064;-78
2022/07/15 04:18:18;;;;;;;5.93;3.33;;;;;;;13.88;100.00;101988.41;5033441;28;20032;-78
2022/07/15 04:20:43;;;;;;;7.75;3.22;;;;;;;13.88;100.00;101990.28;5028505;28;20037;-78
2022/07/15 04:23:09;;;;;;;6.50;3.08;;;;;;;13.86;100.00;101976.91;5066662;28;20028;-78
2022/07/15 04:25:35;;;;;;;5.75;4.03;;;;;;;13.64;100.00;101949.53;5036496;28;20115;-77
2022/07/15 04:28:01;;;;;;;5.50;3.25;;;;;;;13.82;100.00;101973.69;5068881;28;20032;-78
2022/07/15 04:30:26;;;;;;;8.98;3.40;;;;;;;13.91;100.00;101982.66;5050050;28;20540;-79
2022/07/15 04:32:52;;;;;;;7.90;3.20;;;;;;;13.93;100.00;101991.44;5051317;28;20048;-78
2022/07/15 04:35:17;;;;;;;6.78;3.42;;;;;;;13.92;100.00;101983.50;5039790;28;20024;-79
2022/07/15 04:37:43;;;;;;;8.25;4.43;;;;;;;13.95;100.00;101984.03;5068802;28;20069;-79
2022/07/15 04:40:09;;;;;;;6.82;3.83;;;;;;;13.94;100.00;101987.72;5026009;28;20028;-78
2022/07/15 04:42:36;;;;;;;10.25;3.92;;;;;;;14.00;100.00;101989.78;5033003;28;20054;-78
2022/07/15 04:45:02;;;;;;;5.28;3.30;;;;;;;13.99;100.00;101982.66;5034899;28;20098;-79
2022/07/15 04:47:27;;;;;;;7.28;3.80;;;;;;;14.04;100.00;101995.69;5044626;28;20067;-79
2022/07/15 04:52:46;;;;;;;10.35;3.95;;;;;;;14.08;100.00;101987.06;5038866;28;20039;-79
2022/07/15 04:55:13;;;;;;;9.30;3.53;;;;;;;14.06;100.00;101985.56;5028439;28;20036;-78
2022/07/15 04:57:38;;;;;;;6.28;3.55;;;;;;;14.11;100.00;101985.88;5050503;28;20466;-77
2022/07/15 05:00:05;;;;;;;7.22;3.20;;;;;;;14.13;100.00;101981.16;5027063;28;20036;-78
2022/07/15 05:02:31;;;;;;;7.20;3.55;;;;;;;14.13;100.00;101980.28;5030436;28;20036;-80
2022/07/15 05:04:56;;;;;;;10.15;4.38;;;;;;;14.13;100.00;101974.88;5033935;28;20082;-78
2022/07/15 05:07:22;;;;;;;8.40;4.22;;;;;;;14.14;100.00;101977.44;5034593;28;20439;-78
2022/07/15 05:09:55;;;;;;;5.57;2.50;;;;;;;14.20;100.00;101975.91;5048692;28;20554;-79
2022/07/15 05:12:21;;;;;;;8.73;3.35;;;;;;;14.17;100.00;101963.56;5027222;28;20136;-79
2022/07/15 05:14:46;;;;;;;6.93;3.08;;;;;;;14.19;100.00;101969.66;5029298;28;20473;-78
2022/07/15 05:17:14;;;;;;;7.20;3.20;;;;;;;14.19;100.00;101972.34;5055219;28;20041;-78
2022/07/15 05:19:43;;;;;;;4.80;2.75;;;;;;;14.19;100.00;101963.41;5039821;28;20382;-78
2022/07/15 05:22:09;;;;;;;4.35;2.42;;;;;;;14.28;100.00;101968.63;5031522;28;20032;-79
2022/07/15 05:24:35;;;;;;;4.20;2.47;;;;;;;14.33;100.00;101961.88;5051902;28;20068;-77
2022/07/15 05:27:00;;;;;;;4.93;2.47;;;;;;;14.41;100.00;101956.44;5049962;28;20040;-79
2022/07/15 05:29:26;;;;;;;6.55;2.60;;;;;;;14.57;100.00;101969.13;5032952;28;20102;-80
2022/07/15 05:31:51;;;;;;;7.82;2.80;;;;;;;14.69;100.00;101976.72;5034527;28;20454;-78
2022/07/15 05:34:17;;;;;;;6.03;2.60;;;;;;;14.80;100.00;101977.38;5032392;28;20458;-79
2022/07/15 05:36:43;;;;;;;5.38;2.80;;;;;;;14.79;100.00;101973.81;5022664;28;20032;-79
2022/07/15 05:39:09;;;;;;;9.07;3.60;;;;;;;14.72;100.00;101962.00;5050393;28;20035;-78
2022/07/15 05:41:35;;;;;;;6.97;3.30;;;;;;;14.70;100.00;101967.56;5047883;28;20024;-80
2022/07/15 05:44:01;;;;;;;8.35;2.80;;;;;;;14.69;100.00;101970.47;5043911;28;20497;-79
2022/07/15 05:46:26;;;;;;;5.90;2.80;;;;;;;14.87;100.00;101972.91;5043169;28;20056;-79
2022/07/15 05:48:52;;;;;;;7.15;3.10;;;;;;;15.00;100.00;101973.22;5048162;28;20028;-78
2022/07/15 05:51:18;;;;;;;8.48;3.10;;;;;;;15.16;100.00;101984.00;5024885;28;20044;-78
2022/07/15 05:53:44;;;;;;;8.07;2.53;;;;;;;15.30;100.00;101987.81;5031175;28;20040;-78
2022/07/15 05:56:09;;;;;;;8.02;3.00;;;;;;;15.26;100.00;101951.25;5048050;28;20025;-79
2022/07/15 05:58:35;;;;;;;6.05;2.55;;;;;;;15.46;100.00;101973.34;5028579;28;20067;-78
2022/07/15 06:01:01;;;;;;;6.00;2.67;;;;;;;15.51;100.00;101981.78;5025310;28;20105;-78
2022/07/15 06:03:27;;;;;;;6.00;2.25;;;;;;;15.46;100.00;101973.34;5030921;28;20045;-79
2022/07/15 06:05:52;;;;;;;4.10;1.92;;;;;;;15.51;100.00;101976.38;5059034;28;20029;-79
2022/07/15 06:08:18;;;;;;;4.40;1.80;;;;;;;15.61;100.00;101978.81;5065614;28;20044;-79
2022/07/15 06:10:44;;;;;;;3.00;1.27;;;;;;;15.73;100.00;101984.72;5042946;28;20037;-78
2022/07/15 06:13:10;;;;;;;4.90;1.60;;;;;;;15.73;100.00;101980.13;5063717;28;20407;-78
2022/07/15 06:15:36;;;;;;;7.47;1.90;;;;;;;15.85;100.00;101986.00;5062986;28;20158;-78
2022/07/15 06:18:02;;;;;;;4.45;1.67;;;;;;;15.80;100.00;101991.97;5043934;28;20111;-79
2022/07/15 06:20:29;;;;;;;4.05;1.42;;;;;;;15.74;100.00;101989.94;5042423;28;20171;-78
2022/07/15 06:22:55;;;;;;;3.90;1.52;;;;;;;15.65;100.00;101982.88;5044394;28;20033;-78
2022/07/15 06:25:20;;;;;;;3.72;1.30;;;;;;;15.61;100.00;101976.97;5018911;28;20044;-79
2022/07/15 06:27:46;;;;;;;2.40;1.10;;;;;;;15.59;100.00;101976.31;5014353;28;20119;-79
2022/07/15 06:30:13;;;;;;;3.13;1.10;;;;;;;15.56;100.00;101990.22;5034868;28;20032;-78
2022/07/15 06:32:38;;;;;;;2.13;1.05;;;;;;;15.61;100.00;101993.25;5064247;28;20607;-78
2022/07/15 06:35:05;;;;;;;3.33;1.10;;;;;;;15.76;100.00;101997.91;5050019;28;20033;-78
2022/07/15 06:37:31;;;;;;;1.70;0.90;;;;;;;15.77;100.00;101996.88;5049880;28;20103;-78
2022/07/15 06:39:56;;;;;;;2.90;1.30;;;;;;;15.63;100.00;101995.75;5038286;28;20116;-79
2022/07/15 06:42:22;;;;;;;1.83;1.00;;;;;;;15.56;100.00;101997.53;5068287;28;20041;-77
2022/07/15 06:44:48;;;;;;;2.20;1.20;;;;;;;15.44;100.00;102007.91;5051083;28;20074;-81
2022/07/15 06:47:14;;;;;;;2.67;1.10;;;;;;;15.36;100.00;102000.66;5050705;28;20039;-81
2022/07/15 06:49:39;;;;;;;2.22;1.02;;;;;;;15.44;100.00;101996.22;5048580;28;20033;-79
2022/07/15 06:52:05;;;;;;;1.80;1.00;;;;;;;15.70;100.00;101982.38;5065487;28;20119;-78
2022/07/15 06:54:31;;;;;;;1.98;0.90;;;;;;;16.11;100.00;102004.59;5036062;28;20033;-78
2022/07/15 06:56:58;;;;;;;3.00;1.05;;;;;;;16.31;100.00;102001.41;5048532;28;20031;-80
2022/07/15 06:59:23;;;;;;;2.53;1.13;;;;;;;16.08;100.00;101939.84;5046560;28;20392;-78
2022/07/15 07:01:50;;;;;;;1.85;1.00;;;;;;;16.34;100.00;102003.75;5043484;28;20494;-79
2022/07/15 07:04:15;;;;;;;2.75;1.10;;;;;;;16.14;100.00;102001.56;5034116;28;20124;-78
2022/07/15 07:06:41;;;;;;;2.83;1.15;;;;;;;15.88;100.00;101991.06;5017615;28;20044;-78
2022/07/15 07:09:08;;;;;;;3.08;1.20;;;;;;;15.85;100.00;102014.97;5052247;28;20028;-79
2022/07/15 07:11:34;;;;;;;2.65;1.10;;;;;;;15.82;100.00;102005.31;5033626;28;20028;-79
2022/07/15 07:14:00;;;;;;;3.20;1.00;;;;;;;15.83;100.00;101999.75;5026924;28;20123;-79
2022/07/15 07:16:26;;;;;;;1.73;1.05;;;;;;;15.95;100.00;102012.88;5034427;28;20116;-78
2022/07/15 07:18:52;;;;;;;3.28;1.20;;;;;;;15.94;100.00;102008.47;5017028;28;20040;-78
2022/07/15 07:21:18;;;;;;;2.08;1.02;;;;;;;15.96;100.00;102011.88;5015252;28;20060;-79
2022/07/15 07:23:45;;;;;;;1.92;1.00;;;;;;;16.01;100.00;102013.00;5048565;28;20028;-79
2022/07/15 07:26:12;;;;;;;1.35;0.93;;;;;;;15.98;100.00;102016.09;5038392;28;20027;-79
2022/07/15 07:28:40;;;;;;;2.10;1.20;;;;;;;15.95;100.00;102011.00;5035902;28;20029;-78
2022/07/15 07:31:07;;;;;;;2.72;1.02;;;;;;;16.11;100.00;102018.16;5010850;28;20041;-78
2022/07/15 07:33:34;;;;;;;1.63;0.90;;;;;;;16.25;100.00;102003.81;5034225;28;20067;-78
2022/07/15 07:36:00;;;;;;;1.65;0.90;;;;;;;16.48;100.00;102009.22;5048290;28;20039;-78
2022/07/15 07:38:27;;;;;;;1.65;1.10;;;;;;;16.70;100.00;102017.50;5049822;28;20037;-78
2022/07/15 07:40:53;;;;;;;2.38;1.10;;;;;;;17.00;100.00;102026.53;5045044;28;20075;-79
2022/07/15 07:43:19;;;;;;;2.67;1.08;;;;;;;17.43;100.00;102017.66;5041050;28;20060;-79
2022/07/15 07:45:48;;;;;;;3.08;1.45;;;;;;;18.13;100.00;102024.34;5045816;28;20100;-79
2022/07/15 07:48:14;;;;;;;2.60;1.10;;;;;;;18.10;99.64;102024.69;5017311;28;20516;-78
2022/07/15 07:50:40;;;;;;;2.00;1.00;;;;;;;17.86;99.01;102021.34;5048283;28;20060;-80
2022/07/15 07:53:06;;;;;;;2.00;1.10;;;;;;;17.87;98.06;102023.03;5024824;28;20493;-78
2022/07/15 07:55:31;;;;;;;3.20;1.40;;;;;;;18.03;96.51;102030.09;5015999;28;20020;-79
2022/07/15 07:57:58;;;;;;;3.38;1.38;;;;;;;18.48;94.59;102006.19;5041412;28;20090;-78
2022/07/15 08:00:26;;;;;;;2.58;0.90;;;;;;;19.09;88.66;102017.31;5032314;28;20043;-77
2022/07/15 08:02:54;;;;;;;2.67;1.05;;;;;;;18.74;89.48;102011.00;5012452;28;20028;-79
2022/07/15 08:05:20;;;;;;;2.22;0.88;;;;;;;18.29;91.72;102020.50;5047093;28;20063;-78
2022/07/15 08:07:46;;;;;;;2.10;1.13;;;;;;;17.72;92.40;102024.91;5009287;28;20147;-77
2022/07/15 08:10:13;;;;;;;1.13;0.65;;;;;;;17.15;96.69;102026.53;5030125;28;20465;-77
2022/07/15 08:12:38;;;;;;;1.17;0.60;;;;;;;16.89;99.52;102008.81;5051938;28;20029;-78
2022/07/15 08:15:07;;;;;;;0.93;0.63;;;;;;;17.02;100.00;102020.91;5031086;28;20432;-77
2022/07/15 08:17:33;;;;;;;0.90;0.70;;;;;;;17.27;98.74;102033.16;5018692;28;20024;-78
2022/07/15 08:19:58;;;;;;;2.28;0.85;;;;;;;17.47;99.13;102032.59;5038819;28;20031;-78
2022/07/15 08:22:24;;;;;;;1.10;0.77;;;;;;;17.68;98.14;102026.34;5023989;28;20502;-77
2022/07/15 08:24:50;;;;;;;1.75;0.93;;;;;;;17.90;97.26;102029.94;5023089;28;20104;-78
2022/07/15 08:27:19;;;;;;;1.65;0.70;;;;;;;18.65;92.28;102021.19;5041375;28;20119;-78
2022/07/15 08:29:45;;;;;;;1.38;0.88;;;;;;;19.59;88.80;102025.28;5016983;28;20039;-77
2022/07/15 08:32:11;;;;;;;1.77;0.60;;;;;;;19.55;86.58;102033.03;5029022;28;20037;-78
2022/07/15 08:34:36;;;;;;;1.27;0.70;;;;;;;19.19;89.30;102036.03;5037271;28;20089;-78
2022/07/15 08:37:02;;;;;;;1.27;0.70;;;;;;;18.88;88.42;102042.75;5048760;28;20044;-77
2022/07/15 08:39:28;;;;;;;2.20;0.93;;;;;;;18.69;90.04;102038.00;5066191;28;20040;-79
2022/07/15 08:41:54;;;;;;;2.95;0.88;;;;;;;18.80;86.47;102032.00;5013043;28;20044;-79
2022/07/15 08:44:22;;;;;;;1.35;0.80;;;;;;;18.97;88.18;102037.16;5042313;28;20072;-78
2022/07/15 08:46:48;;;;;;;1.80;1.00;;;;;;;19.08;85.33;102025.69;5059864;28;20497;-83
2022/07/15 08:49:16;;;;;;;1.67;0.93;;;;;;;18.98;86.04;102031.50;5022573;28;20199;-78
2022/07/15 08:51:44;;;;;;;1.25;1.02;;;;;;;18.98;84.79;102036.94;5038109;28;20028;-82
2022/07/15 08:54:13;;;;;;;3.05;1.17;;;;;;;19.14;84.06;102033.06;5041633;28;20036;-81
2022/07/15 08:56:40;;;;;;;1.30;0.80;;;;;;;19.47;83.58;102032.38;5023418;28;20045;-82
2022/07/15 08:59:07;;;;;;;1.73;1.20;;;;;;;19.40;83.24;102026.06;5033922;28;20060;-80
2022/07/15 09:01:34;;;;;;;2.33;1.13;;;;;;;19.29;82.95;102041.09;5020605;28;20280;-80
2022/07/15 09:04:00;;;;;;;3.17;1.15;;;;;;;19.02;83.21;102010.97;5046775;28;20093;-80
2022/07/15 09:06:37;;;;;;;3.17;1.30;;;;;;;19.02;81.26;102030.03;5030332;28;22583;-80
2022/07/15 09:09:26;;;;;;;2.78;1.17;;;;;;;19.13;82.11;102027.78;5029618;28;20028;-80
2022/07/15 09:12:02;;;;;;;1.90;1.48;;;;;;;19.57;79.04;102032.00;5027417;28;20041;-82
2022/07/15 09:14:29;;;;;;;2.33;1.17;;;;;;;19.92;73.59;102008.16;5064498;28;20762;-80
2022/07/15 09:17:11;;;;;;;3.15;1.42;;;;;;;20.54;68.78;102036.19;5047655;28;20028;-83
2022/07/15 09:20:07;;;;;;;2.53;1.30;;;;;;;20.52;68.80;102043.72;5035539;28;20048;-80
2022/07/15 09:22:55;;;;;;;2.45;1.50;;;;;;;20.46;67.23;102039.94;5034325;28;20036;-81
2022/07/15 09:25:22;;;;;;;2.30;1.50;;;;;;;20.66;65.27;102045.41;5033535;28;20433;-80
2022/07/15 09:27:48;;;;;;;3.45;1.30;;;;;;;20.98;65.07;102042.84;5031101;28;20497;-82
2022/07/15 09:36:20;;;;;;;2.53;1.35;;;;;;;20.71;63.33;102042.06;5048425;28;20498;-80
2022/07/15 09:38:52;;;;;;;3.33;1.58;;;;;;;20.18;65.18;102002.72;5035859;28;20079;-80
2022/07/15 09:41:24;;;;;;;5.55;1.67;;;;;;;20.36;66.19;102050.44;5019814;28;20075;-81
2022/07/15 09:43:56;;;;;;;3.53;1.40;;;;;;;20.26;65.18;102045.38;5045719;28;20495;-83
2022/07/15 09:46:25;;;;;;;2.92;1.25;;;;;;;20.31;65.71;102047.50;5022383;28;20520;-81
2022/07/15 09:48:52;;;;;;;3.85;1.38;;;;;;;20.53;64.46;102045.41;5042194;28;20052;-80
2022/07/15 09:51:18;;;;;;;2.70;1.42;;;;;;;20.89;65.23;102042.25;5075163;28;20469;-79
2022/07/15 09:53:46;;;;;;;3.35;1.67;;;;;;;21.29;64.88;102059.38;5051543;28;20031;-80
2022/07/15 09:56:21;;;;;;;2.00;1.30;;;;;;;21.46;65.13;102048.84;5033057;28;20079;-80
2022/07/15 09:58:47;;;;;;;1.98;1.05;;;;;;;21.59;63.12;102045.19;5032257;28;20041;-78
2022/07/15 10:01:12;;;;;;;2.25;1.10;;;;;;;21.82;62.59;102052.84;5047125;28;20062;-80
2022/07/15 10:03:39;;;;;;;1.73;1.10;;;;;;;22.11;61.86;102025.94;5044551;28;20040;-79
2022/07/15 10:06:05;;;;;;;2.83;1.30;;;;;;;22.67;59.18;102041.50;5044971;28;20021;-79
2022/07/15 10:08:33;;;;;;;2.22;1.23;;;;;;;23.01;57.42;102033.81;5017447;28;20040;-81
2022/07/15 10:10:59;;;;;;;1.95;1.15;;;;;;;23.20;57.93;102040.97;5032389;28;20059;-78
2022/07/15 10:13:35;;;;;;;1.98;1.00;;;;;;;23.53;55.09;102047.97;5058502;28;20035;-78
2022/07/15 10:16:20;;;;;;;3.72;1.20;;;;;;;23.34;56.25;102049.03;5034121;28;20103;-78
2022/07/15 10:18:55;;;;;;;2.95;1.30;;;;;;;23.23;56.12;102046.03;5028995;28;20055;-79
2022/07/15 10:21:36;;;;;;;3.58;1.38;;;;;;;22.80;55.74;102038.63;5018207;28;20991;-80
2022/07/15 10:24:24;;;;;;;2.38;1.40;;;;;;;22.38;57.70;102040.28;5050538;28;20161;-78
2022/07/15 10:27:07;;;;;;;4.45;1.77;;;;;;;22.45;58.02;102037.50;5035450;28;20082;-79
2022/07/15 10:29:33;;;;;;;2.42;1.48;;;;;;;22.81;56.35;102047.69;5030947;28;20037;-80
2022/07/15 10:32:00;;;;;;;4.07;1.75;;;;;;;22.99;55.58;102050.50;5026668;28;20025;-80
2022/07/15 10:34:32;;;;;;;4.20;1.50;;;;;;;23.05;54.66;102051.50;5029843;28;20475;-79
2022/07/15 10:37:00;;;;;;;3.50;2.15;;;;;;;23.15;54.88;102059.19;5047260;28;20305;-79
2022/07/15 10:39:48;;;;;;;4.88;2.00;;;;;;;23.09;54.64;102049.97;5033300;28;20098;-81
2022/07/15 10:42:14;;;;;;;3.65;2.30;;;;;;;23.14;54.90;102052.88;5030191;28;20041;-78
2022/07/15 10:44:50;;;;;;;3.67;2.00;;;;;;;23.39;53.98;102049.19;5031977;28;20040;-79
2022/07/15 10:47:18;;;;;;;6.07;2.47;;;;;;;23.34;53.94;102030.69;5050151;28;20039;-82
2022/07/15 10:49:47;;;;;;;3.80;1.83;;;;;;;23.20;53.09;102053.84;5040057;28;20070;-82
2022/07/15 10:52:18;;;;;;;4.05;2.05;;;;;;;22.34;55.74;102058.25;5030791;28;20079;-82
2022/07/15 10:55:05;;;;;;;4.15;2.40;;;;;;;21.57;59.20;102054.69;5033119;28;20029;-79
2022/07/15 10:57:42;;;;;;;5.75;2.17;;;;;;;21.26;60.43;102064.44;5034690;28;20509;-80
2022/07/15 11:00:28;;;;;;;4.30;1.95;;;;;;;21.07;60.47;102061.56;5049412;28;20068;-80
2022/07/15 11:03:20;;;;;;;3.03;1.88;;;;;;;21.18;59.70;102054.56;5048283;28;20036;-80
2022/07/15 11:05:49;;;;;;;;;;;;;;;21.72;56.75;102056.09;5017235;28;20052;-80
2022/07/15 11:08:33;;;;;;;3.00;1.90;;;;;;;22.57;54.16;102046.66;5035303;28;20277;-80
2022/07/15 11:11:14;;;;;;;7.07;2.10;;;;;;;23.81;50.29;102039.16;5054736;28;20036;-81
2022/07/15 11:13:41;;;;;;;4.90;2.30;;;;;;;24.91;48.17;102054.31;5036625;28;20040;-82
2022/07/15 11:16:16;;;;;;;4.65;2.60;;;;;;;28.47;41.24;102031.72;5036725;28;20045;-80
2022/07/15 11:18:45;;;;;;;3.40;2.22;;;;;;;30.33;34.96;102046.00;5055020;28;20040;-82
2022/07/15 11:21:12;;;;;;;4.18;2.17;;;;;;;30.05;33.56;102050.13;5036615;28;20031;-84
2022/07/15 11:23:38;;;;;;;4.85;2.70;;;;;;;30.43;34.25;102057.13;5049755;28;20399;-81
2022/07/15 11:26:04;;;;;;;3.78;2.42;;;;;;;30.58;34.32;102050.69;5014277;28;20437;-80
2022/07/15 11:28:30;;;;;;;3.35;2.38;;;;;;;29.24;34.66;102059.00;5055977;28;20037;-82
2022/07/15 11:30:56;;;;;;;4.47;2.53;;;;;;;30.08;32.97;102068.16;5018930;28;20067;-81
2022/07/15 11:33:26;;;;;;;3.45;2.35;;;;;;;28.67;34.55;102021.88;5020477;28;20090;-84